Tiempo atmosférico en la estación meteorológica de Cazalla De La Sierra, Sevilla (550 m.)

Fecha
DESCASC
Temp. máxima en grados centígrados (hora)
DESCASC
Temp. mínima en grados centígrados (hora)
DESCASC
Temp. media en grados centígrados
DESCASC
Racha de viento máxima en m/sg (hora)
DESCASC
Velocidad máxima media en intervalos de 10 minutos(hora)
DESCASC
Precipitaciones diarias en mm
DESCASC
Precipitaciones de 00:00 a 06:00 en mm
DESCASC
Precipitaciones de 06:00 a 12:00 en mm
DESCASC
Precipitaciones de 12:00 a 18:00 en mm
DESCASC
Precipitaciones de 18:00 a 24:00 en mm
DESCASC
22-10-2017 26.1 (16:20) 9.8 (08:30) 18 10.83 (15:30) 2.22 (01:40) 0 0 0 0 0
21-10-2017 25 (16:20) 14.8 (04:40) 19.9 6.11 (15:40) 3.06 (16:00) 0 0 0 0 0
20-10-2017 24.5 (17:40) 12 (02:50) 18.3 4.44 (14:10) 2.5 (11:40) 0 0 0 0 0
19-10-2017 20.9 (16:20) 13 (00:00) 16.9 8.33 (15:10) 5 (15:10) 0.1 0.1 0 0 0
18-10-2017 18.1 (17:30) 13.4 (00:00) 15.8 7.22 (16:20) 3.89 (09:30) 4.5 0.4 3.3 0.1 0.7
17-10-2017 21.2 (00:00) 15.9 (00:00) 18.6 11.67 (13:40) 4.17 (13:40) 9.7 0 0 9.7 0
16-10-2017 28.3 (16:30) 13 (00:00) 20.6 7.22 (16:10) 3.06 (10:10) 0 0 0 0 0
15-10-2017 31.1 (16:30) 16.9 (00:00) 24 7.5 (15:00) 3.33 (18:20) 0 0 0 0 0
14-10-2017 32.4 (16:20) 15.7 (00:00) 24.1 4.17 (15:30) 2.22 (17:20) 0 0 0 0 0
13-10-2017 31.4 (17:50) 13.2 (00:00) 22.3 6.39 (15:00) 3.61 (14:50) 0 0 0 0 0
12-10-2017 30.1 (14:00) 15.7 (00:00) 22.9 7.78 (15:10) 3.61 (14:20) 0 0 0 0 0
11-10-2017 31.7 (16:30) 12.3 (00:00) 22 6.11 (14:10) 2.5 (12:30) 0 0 0 0 0
10-10-2017 29.4 (15:40) 11.3 (00:00) 20.3 7.22 (16:30) 2.22 (16:30) 0 0 0 0 0
09-10-2017 30.8 (17:00) 12.2 (00:00) 21.5 5.56 (17:40) 3.61 (16:20) 0 0 0 0 0
08-10-2017 31.3 (17:00) 12.8 (00:00) 22 6.11 (17:50) 3.06 (16:30) 0 0 0 0 0
07-10-2017 31.1 (16:10) 15.2 (00:00) 23.2 6.67 (14:00) 2.78 (16:20) 0 0 0 0 0
06-10-2017 33.3 (17:00) 13.8 (00:00) 23.5 7.78 (14:50) 3.33 (15:10) 0 0 0 0 0
05-10-2017 31.1 (17:50) 15.5 (00:00) 23.3 6.67 (14:40) 2.78 (15:00) 0 0 0 0 0
04-10-2017 30.3 (16:40) 14.8 (00:00) 22.5 6.39 (14:50) 2.5 (13:00) 0 0 0 0 0
03-10-2017 31.3 (16:50) 14.4 (00:00) 22.8 6.11 (17:50) 2.78 (15:20) 0 0 0 0 0
02-10-2017 32 (16:10) 15.5 (00:00) 23.8 7.5 (11:40) 3.61 (11:50) 0 0 0 0 0
01-10-2017 31.8 (15:50) 14.2 (00:00) 23 6.11 (17:10) 2.5 (17:50) 0 0 0 0 0
30-09-2017 31.5 (16:30) 13.2 (00:00) 22.3 6.67 (17:50) 3.61 (18:10) 0 0 0 0 0
29-09-2017 31.2 (17:10) 14.2 (00:00) 22.7 5 (17:30) 2.22 (17:20) 0 0 0 0 0
28-09-2017 28 (16:00) 14.8 (00:00) 21.4 6.67 (16:50) 2.78 (16:50) 0 0 0 0 0
27-09-2017 23.1 (15:10) 12.7 (00:00) 17.9 4.44 (15:30) 1.94 (17:40) 0 0 0 0 0
26-09-2017 29.9 (16:40) 10.4 (00:00) 20.1 6.39 (16:10) 2.5 (00:40) 0 0 0 0 0
25-09-2017 31.3 (17:20) 13 (00:00) 22.1 8.33 (15:50) 3.89 (15:50) 0 0 0 0 0
24-09-2017 30.1 (16:30) 13 (00:00) 21.6 5.83 (17:20) 3.06 (16:10) 0 0 0 0 0
23-09-2017 29.7 (17:10) 12.9 (00:00) 21.3 6.11 (11:10) 3.06 (11:40) 0 0 0 0 0

Gráficas

Temp. máximas Temp. mínimas Temp. medias Precipitaciones Rachas de viento máximas Velocidades máximas media en intervalos de 10 minutos

Datos horarios

Fecha y hora oficial Temperatura (ºC) Velocidad del viento (km/h) Dirección del viento Racha (km/h) Dirección de racha Precipitación (mm) Presión (hPa) Tendencia (hPa) Humedad (%)
2017-10-22 23:00:00 14.2 5 Este 8 Este 0 959.8 0.8 85
2017-10-22 22:00:00 14.6 3 Sudeste 6 Sudeste 0 959.6 1.1 84
2017-10-22 21:00:00 16.4 3 Sudeste 5 Este 0 959.3 1 76
2017-10-22 20:00:00 19.9 2 Este 9 Sudoeste 0 959 0.6 58
2017-10-22 19:00:00 23.6 4 Sur 12 Sudoeste 0 958.5 -0.4 44
2017-10-22 18:00:00 25.3 2 Este 9 Oeste 0 958.3 -1 38
2017-10-22 17:00:00 25.6 6 Noroeste 14 Oeste 0 958.4 -1.5 38
2017-10-22 16:00:00 25.5 3 Este 39 Este 0 958.9 -1.5 39
2017-10-22 15:00:00 24.1 5 Norte 15 Nordeste 0 959.3 -1.4 43
2017-10-22 14:00:00 23.3 2 Nordeste 12 Este 0 959.9 -1 46
2017-10-22 13:00:00 22.1 0 Calma 11 Este 0 960.4 -0.1 49
2017-10-22 12:00:00 19.9 6 Este 15 Este 0 960.7 0.8 52
2017-10-22 11:00:00 17 5 Este 13 Este 0 960.9 0.9 59
2017-10-22 10:00:00 12.7 0 Calma 8 Este 0 960.5 0.6 82
2017-10-22 09:00:00 10.8 4 Este 8 Este 0 959.9 0.3 83
2017-10-22 08:00:00 10 2 Nordeste 6 Este 0 960 0.4 86
2017-10-22 07:00:00 10.6 3 Este 5 Este 0 959.9 -0.2 83
2017-10-22 06:00:00 11 2 Este 6 Sudeste 0 959.6 -0.8 81
2017-10-22 05:00:00 12.2 2 Sudeste 10 Este 0 959.6 -0.9 74
2017-10-22 04:00:00 14.3 6 Este 14 Este 0 960.1 0 68
2017-10-22 03:00:00 13 0 Calma 6 Este 0 960.4 0.2 81
2017-10-22 02:00:00 14.7 3 Sudeste 14 Este 0 960.5 0.7 76
2017-10-22 01:00:00 16 4 Este 11 Nordeste 0 960.1 0.2 75
2017-10-22 00:00:00 16.3 5 Norte 18 Noroeste 0 960.2 0.4 79
2017-10-21 23:00:00 17.4 7 Noroeste 14 Norte 0 959.8 0.8 80
2017-10-21 22:00:00 17.9 2 Nordeste 8 Nordeste 0 959.9 1.2 73
2017-10-21 21:00:00 18.8 4 Nordeste 14 Nordeste 0 959.8 1.2 66
2017-10-21 20:00:00 20.2 5 Nordeste 15 Nordeste 0 959 0.3 58
2017-10-21 19:00:00 21.5 4 Nordeste 20 Noroeste 0 958.7 -0.3 53
2017-10-21 18:00:00 23.5 9 Norte 21 Norte 0 958.6 -0.9 46
2017-10-21 17:00:00 24.7 8 Norte 21 Noroeste 0 958.7 -1.5 46
2017-10-21 16:00:00 23.6 11 Noroeste 22 Noroeste 0 959 -1.9 47
2017-10-21 15:00:00 23.2 9 Noroeste 21 Noroeste 0 959.5 -1.4 52
2017-10-21 14:00:00 22.3 8 Noroeste 19 Norte 0 960.2 -0.5 59
2017-10-21 13:00:00 20.9 6 Norte 17 Norte 0 960.9 0.9 66
2017-10-21 12:00:00 20.5 7 Norte 19 Nordeste 0 960.9 1.3 72
2017-10-21 11:00:00 18.9 6 Norte 15 Nordeste 0 960.7 1.4 86
2017-10-21 10:00:00 17.9 7 Este 11 Este 0 960 0.9 96
2017-10-21 09:00:00 16.5 2 Sudeste 5 Sudeste 0 959.6 1 97
2017-10-21 08:00:00 17.2 2 Este 10 Nordeste 0 959.3 0.8 97
2017-10-21 07:00:00 17.1 0 Calma 5 Sudoeste 0 959.1 0.4 97
2017-10-21 06:00:00 16.3 0 Calma 5 Este 0 958.6 -0.4 97
2017-10-21 05:00:00 15.1 3 Este 6 Este 0 958.5 -0.4 98
2017-10-21 04:00:00 15.2 0 Calma 4 Sudeste 0 958.7 -0.2 96
2017-10-21 03:00:00 16 0 Calma 5 Este 0 959 0.1 94
2017-10-21 02:00:00 17 0 Calma 5 Norte 0 958.9 0 91
2017-10-21 01:00:00 18.1 0 Calma 5 Este 0 958.9 0.4 90
2017-10-21 00:00:00 19 0 Calma 0 Calma 0 958.9 0.6 86
2017-10-20 23:00:00 19.3 0 Calma -- -- 0 958.9 1.2 82
2017-10-20 22:00:00 19.7 0 Calma 8 Sudoeste 0 958.5 1.3 77
2017-10-20 21:00:00 19.8 3 Sudoeste 12 Sudoeste 0 958.3 1.2 74
2017-10-20 20:00:00 20.4 5 Sur 9 Sur 0 957.7 0.6 69
2017-10-20 19:00:00 21.8 0 Calma 7 Nordeste 0 957.2 -0.1 57
2017-10-20 18:00:00 23.1 5 Norte 14 Norte 0 957.1 -0.3 50
2017-10-20 17:00:00 23.6 5 Noroeste 13 Noroeste 0 957.1 -0.8 52
2017-10-20 16:00:00 22.3 5 Noroeste 13 Noroeste 0 957.3 -0.9 55
2017-10-20 15:00:00 21.8 4 Sudeste 16 Oeste 0 957.4 -0.7 58
2017-10-20 14:00:00 21.3 4 Oeste 12 Oeste 0 957.9 0.3 64
2017-10-20 13:00:00 19.3 0 Calma 7 Sudoeste 0 958.2 1.2 74
2017-10-20 12:00:00 17.5 0 Calma 12 Norte 0 958.1 2.1 85
2017-10-20 11:00:00 17.2 7 Norte 10 Norte 0 957.6 1.9 88
2017-10-20 10:00:00 15.9 0 Calma 7 Este 0 957 1.6 97
2017-10-20 09:00:00 14.1 3 Este 5 Este 0 956 0.8 95
2017-10-20 08:00:00 15 0 Calma 12 Noroeste 0 955.7 0.6 95
2017-10-20 07:00:00 15.2 2 Noroeste 12 Noroeste 0 955.4 0.1 98
2017-10-20 06:00:00 14.6 2 Este 3 Este 0 955.2 -0.3 98
2017-10-20 05:00:00 14.1 0 Calma 4 Nordeste 0 955.1 0 98
2017-10-20 04:00:00 13.3 0 Calma 4 Este 0 955.3 0.4 99
2017-10-20 03:00:00 12.1 0 Calma 4 Este 0 955.5 0.7 98
2017-10-20 02:00:00 12.7 4 Este 5 Este 0 955.1 0.7 97
2017-10-20 01:00:00 12.9 0 Calma 4 Sudeste 0 954.9 1 95
2017-10-20 00:00:00 13.6 0 Calma 3 Este 0 954.8 1.8 92
2017-10-19 23:00:00 14.9 0 Calma 5 Noroeste 0 954.4 1.8 86
2017-10-19 22:00:00 15.8 4 Noroeste 12 Noroeste 0 953.9 2 78
2017-10-19 21:00:00 16.9 4 Oeste 13 Noroeste 0 953 1.9 70
2017-10-19 20:00:00 18 7 Noroeste 13 Noroeste 0 952.6 1.8 63
2017-10-19 19:00:00 18.2 6 Noroeste 20 Noroeste 0 951.9 1.3 58
2017-10-19 18:00:00 19.2 10 Noroeste 28 Noroeste 0 951.1 0.4 53
2017-10-19 17:00:00 19.3 13 Noroeste 30 Oeste 0 950.8 -0.3 50
2017-10-19 16:00:00 20.6 12 Noroeste 30 Oeste 0 950.6 -0.6 44
2017-10-19 15:00:00 19.9 14 Oeste 28 Oeste 0 950.7 -0.2 48
2017-10-19 14:00:00 18.9 14 Oeste 28 Noroeste 0 951.1 0.8 56
2017-10-19 13:00:00 16.5 8 Oeste 16 Noroeste 0 951.2 1.7 72
2017-10-19 12:00:00 15.8 3 Noroeste 11 Norte 0 950.9 2.1 78
2017-10-19 11:00:00 15 2 Norte 9 Noroeste 0 950.3 1.9 84
2017-10-19 10:00:00 13.9 0 Calma 7 Noroeste 0 949.5 1.6 93
2017-10-19 09:00:00 13.2 3 Este 7 Este 0 948.8 1.4 93
2017-10-19 08:00:00 13 2 Nordeste 8 Este 0 948.4 1.1 95
2017-10-19 07:00:00 13.2 5 Nordeste 9 Nordeste 0 947.9 0 96
2017-10-19 06:00:00 13.4 2 Este 9 Este 0 947.4 -0.8 96
2017-10-19 05:00:00 13.6 3 Este 8 Nordeste 0 947.3 -1.7 98
2017-10-19 04:00:00 13.7 3 Nordeste 10 Oeste 0 947.9 -1.3 98
2017-10-19 03:00:00 13.8 6 Oeste 10 Noroeste 0 948.2 -1.5 98
2017-10-19 02:00:00 14.1 6 Oeste 17 Oeste 0.1 949 -1 98
2017-10-19 01:00:00 14.3 8 Oeste 15 Oeste 0 949.2 -0.6 98
2017-10-19 00:00:00 14.7 7 Noroeste 23 Sudoeste 0.7 949.7 0.4 97
2017-10-18 23:00:00 15.1 6 Oeste 17 Oeste 0 950 1.3 95
2017-10-18 22:00:00 14.9 6 Oeste 10 Oeste 0 949.8 0.8 93
2017-10-18 21:00:00 14.4 2 Noroeste 8 Oeste 0 949.3 0.2 88
2017-10-18 20:00:00 15.4 0 Calma 14 Noroeste 0 948.7 -0.1 77
2017-10-18 19:00:00 16.6 6 Oeste 20 Oeste 0 949 -0.3 73
2017-10-18 18:00:00 16 10 Oeste 24 Oeste 0 949.1 -0.8 73
2017-10-18 17:00:00 17.3 7 Oeste 26 Oeste 0 948.8 -1.7 73
2017-10-18 16:00:00 16.6 8 Sudoeste 21 Sudoeste 0 949.3 -1.6 75
2017-10-18 15:00:00 16.3 6 Sudoeste 19 Sudoeste 0 949.9 -1.3 76
2017-10-18 14:00:00 16.3 6 Oeste 15 Noroeste 0 950.5 -0.1 83
2017-10-18 13:00:00 15.1 8 Oeste 13 Oeste 0.1 950.9 0.5 95
2017-10-18 12:00:00 14.6 8 Oeste 20 Oeste 0.4 951.2 1.3 94
2017-10-18 11:00:00 14.3 8 Oeste 15 Sudoeste 0.1 950.6 0.5 99
2017-10-18 10:00:00 13.8 7 Oeste 23 Oeste 0 950.4 0.3 99
2017-10-18 09:00:00 13.5 8 Noroeste 17 Noroeste 0 949.9 -0.5 99
2017-10-18 08:00:00 13.7 5 Oeste 24 Oeste 2.3 950.1 -0.7 98
2017-10-18 07:00:00 14.5 6 Sudoeste 13 Sur 0.5 950.1 -1.4 98
2017-10-18 06:00:00 15.1 4 Sudoeste 10 Sur 0.2 950.4 -1.6 98
2017-10-18 05:00:00 15.4 0 Calma 14 Sudoeste 0 950.8 -1.9 98
2017-10-18 04:00:00 15.5 2 Sudoeste 19 Noroeste 0.2 951.5 -2 97
2017-10-18 03:00:00 16 3 Sur 13 Sudoeste 0 952 -1.6 95
2017-10-18 02:00:00 16.2 5 Sur 15 Oeste 0 952.7 -1.5 96
2017-10-18 01:00:00 16.1 5 Sudoeste 17 Oeste 0 953.5 -0.8 95
2017-10-18 00:00:00 16.4 2 Sudoeste 12 Sur 0 953.6 -0.5 95
2017-10-17 23:00:00 17 5 Sur 12 Sur 0 954.2 0.1 97
2017-10-17 22:00:00 17.1 4 Sudoeste 17 Sudoeste 0 954.3 0.2 97
2017-10-17 21:00:00 17.4 6 Sur 13 Sur 0 954.1 -0.5 97
2017-10-17 20:00:00 17.6 4 Sur 10 Sudoeste 0 954.1 -1 94
2017-10-17 19:00:00 18.3 3 Sudoeste 14 Sudoeste 0 954.1 -1.4 92
2017-10-17 18:00:00 18.7 3 Sudoeste 9 Sudoeste 0 954.6 -1.8 93
2017-10-17 17:00:00 16.7 5 Sur 13 Sur 0.3 955.1 -2 97
2017-10-17 16:00:00 16.3 0 Calma 9 Este 2.6 955.5 -1.4 98
2017-10-17 15:00:00 16.4 0 Calma 13 Sur 0.9 956.4 0 98
2017-10-17 14:00:00 16 2 Sudoeste 42 Oeste 5.4 957.1 -0.3 98
2017-10-17 13:00:00 18.8 4 Sur 22 Sudeste 0.5 956.9 -0.3 79
2017-10-17 12:00:00 21 8 Sur 19 Sur 0 956.4 0.1 70
2017-10-17 11:00:00 19.6 5 Oeste 15 Sudoeste 0 957.4 0.9 76
2017-10-17 10:00:00 18.6 0 Calma 13 Sudoeste 0 957.2 1 76
2017-10-17 09:00:00 18 4 Sur 10 Sur 0 956.3 0.2 75
2017-10-17 08:00:00 17.1 3 Sur 8 Sudeste 0 956.5 0.2 71
2017-10-17 07:00:00 18.5 2 Sudeste 6 Este 0 956.2 -0.5 66
2017-10-17 06:00:00 18.8 3 Sudeste 10 Sur 0 956.1 -1 66
2017-10-17 05:00:00 19.1 3 Sudeste 10 Este 0 956.3 -1.5 66
2017-10-17 04:00:00 19.5 5 Sudeste 12 Sudeste 0 956.7 -1.3 65
2017-10-17 03:00:00 19.3 6 Sudeste 13 Sudeste 0 957.1 -1.3 69
2017-10-17 02:00:00 19.5 4 Sudeste 13 Sudeste 0 957.8 -0.4 69
2017-10-17 01:00:00 20.7 5 Sur 11 Sudoeste 0 958 -0.1 65
2017-10-17 00:00:00 21.2 5 Sudoeste 16 Sudoeste 0 958.4 0.5 65
2017-10-16 23:00:00 21.4 8 Sudoeste 20 Sur 0 958.2 0.4 65
2017-10-16 22:00:00 21.9 9 Sudoeste 19 Sudoeste 0 958.1 0.3 62
2017-10-16 21:00:00 22.3 3 Sudoeste 12 Sudoeste 0 957.9 0.1 58
2017-10-16 20:00:00 22.9 0 Calma 12 Oeste 0 957.8 0.1 52
2017-10-16 19:00:00 24.4 4 Oeste 20 Sur 0 957.8 -0.2 47
2017-10-16 18:00:00 25.3 8 Oeste 24 Sudoeste 0 957.8 -0.6 41
2017-10-16 17:00:00 27 8 Sudoeste 26 Sudoeste 0 957.7 -1.4 35
2017-10-16 16:00:00 27.7 8 Sudoeste 22 Sur 0 958 -1.3 35
2017-10-16 15:00:00 27.2 5 Sur 22 Sur 0 958.4 -0.9 37
2017-10-16 14:00:00 26.3 8 Sudeste 20 Sur 0 959.1 -0.2 39
2017-10-16 13:00:00 25.5 9 Sur 19 Sur 0 959.3 0.6 40
2017-10-16 12:00:00 23.6 8 Sudeste 21 Sudeste 0 959.3 1.2 46
2017-10-16 11:00:00 21.7 9 Sudeste 22 Sudeste 0 959.3 1.6 52
2017-10-16 10:00:00 20.8 8 Sudeste 21 Sudeste 0 958.7 0.9 56
2017-10-16 09:00:00 16.7 5 Este 11 Este 0 958.1 0.4 78
2017-10-16 08:00:00 14.7 4 Este 10 Este 0 957.7 0 92
2017-10-16 07:00:00 13.9 2 Sudeste 11 Este 0 957.8 0.2 90
2017-10-16 06:00:00 15.7 3 Sudeste 10 Este 0 957.7 -0.3 79
2017-10-16 05:00:00 18.4 6 Este 13 Sudeste 0 957.7 -0.6 66
2017-10-16 04:00:00 19 8 Sudeste 14 Sudeste 0 957.6 -1 55
2017-10-16 03:00:00 19.9 9 Este 18 Sudeste 0 958 -0.4 49
2017-10-16 02:00:00 20 7 Sudeste 16 Este 0 958.3 0.1 47
2017-10-16 01:00:00 19.5 6 Este 11 Este 0 958.6 0.5 46
2017-10-16 00:00:00 17 6 Este 8 Este 0 958.4 0.5 48
2017-10-15 23:00:00 20.1 5 Este 11 Sudeste 0 958.2 0.9 41
2017-10-15 22:00:00 23.7 6 Sudeste 19 Sudeste 0 958.1 0.9 37
2017-10-15 21:00:00 24.6 8 Sudeste 16 Sudeste 0 957.9 1 36
2017-10-15 20:00:00 25.7 7 Sudeste 23 Este 0 957.3 0.1 35
2017-10-15 19:00:00 28.1 8 Sudeste 26 Este 0 957.2 -0.4 33
2017-10-15 18:00:00 29.5 11 Sudeste 24 Este 0 956.9 -1.6 31
2017-10-15 17:00:00 30.2 11 Sudeste 26 Sudeste 0 957.2 -1.9 31
2017-10-15 16:00:00 30.2 10 Sudeste 27 Sur 0 957.6 -2.1 32
2017-10-15 15:00:00 29.3 12 Sur 27 Sur 0 958.5 -1.3 32
2017-10-15 14:00:00 29.1 10 Sudeste 26 Sur 0 959.1 -0.8 33
2017-10-15 13:00:00 28.5 10 Sudeste 25 Sur 0 959.7 0 35
2017-10-15 12:00:00 27.1 9 Sudeste 17 Sudeste 0 959.8 0.5 39
2017-10-15 11:00:00 24.6 8 Sudeste 20 Sur 0 959.9 0.8 42
2017-10-15 10:00:00 23.5 6 Sudeste 12 Este 0 959.7 0.7 45
2017-10-15 09:00:00 20.2 3 Este 10 Este 0 959.3 0.2 49
2017-10-15 08:00:00 21.3 7 Este 12 Este 0 959.1 0.1 47
2017-10-15 07:00:00 21.2 9 Este 12 Este 0 959 -0.2 49
2017-10-15 06:00:00 18.7 2 Sudeste 9 Este 0 959.1 -0.2 56
2017-10-15 05:00:00 18 5 Sudeste 7 Este 0 959 -0.6 57
2017-10-15 04:00:00 18.2 3 Sudeste 8 Este 0 959.2 -0.7 56
2017-10-15 03:00:00 19 6 Este 8 Este 0 959.3 -1 56
2017-10-15 02:00:00 19.3 6 Este 9 Este 0 959.6 -0.5 55
2017-10-15 01:00:00 18.4 5 Este 8 Este 0 959.9 0 55
2017-10-15 00:00:00 19.8 6 Este 9 Este 0 960.3 0.5 52
2017-10-14 23:00:00 21.7 0 Calma 15 Noroeste 0 960.1 0.7 48
2017-10-14 22:00:00 23.4 5 Sudoeste 10 Oeste 0 959.9 0.8 47
2017-10-14 21:00:00 24 0 Calma 5 Sur 0 959.8 0.9 41
2017-10-14 20:00:00 26.7 0 Calma 12 Oeste 0 959.4 0.5 36
2017-10-14 19:00:00 28.4 3 Sur 14 Sur 0 959.1 0 34
2017-10-14 18:00:00 29.8 5 Sur 15 Sur 0 958.9 -0.5 32
2017-10-14 17:00:00 32.1 5 Sudeste 13 Sur 0 958.9 -1.3 31
2017-10-14 16:00:00 31.5 5 Sur 15 Este 0 959.1 -1.8 32
2017-10-14 15:00:00 31.3 4 Norte 14 Oeste 0 959.4 -1.7 33
2017-10-14 14:00:00 29.2 5 Sur 12 Sur 0 960.2 -0.7 36
2017-10-14 13:00:00 28.3 5 Sur 13 Sur 0 960.9 0.6 36
2017-10-14 12:00:00 27.4 2 Sudeste 6 Sur 0 961.1 1.1 40
2017-10-14 11:00:00 23.3 0 Calma 4 Este 0 960.9 1.3 58
2017-10-14 10:00:00 19.5 2 Este 7 Este 0 960.3 0.9 66
2017-10-14 09:00:00 15.9 3 Este 7 Este 0 960 0.7 72
2017-10-14 08:00:00 16.4 2 Sudeste 9 Este 0 959.6 0.1 70
2017-10-14 07:00:00 16.4 3 Sudeste 6 Este 0 959.4 -0.4 71
2017-10-14 06:00:00 16.2 5 Sudeste 8 Este 0 959.3 -0.8 71
2017-10-14 05:00:00 15.9 3 Sudeste 6 Este 0 959.5 -0.8 71
2017-10-14 04:00:00 16 4 Sudeste 7 Este 0 959.8 -0.9 69
2017-10-14 03:00:00 16.6 4 Este 7 Este 0 960.1 -0.5 66
2017-10-14 02:00:00 17.2 3 Sudeste 7 Este 0 960.3 -0.1 64
2017-10-14 01:00:00 18.5 3 Sudeste 6 Este 0 960.7 0.5 61
2017-10-14 00:00:00 19.1 4 Este 6 Este 0 960.6 0.6 59
2017-10-13 23:00:00 18.9 4 Sudeste 5 Este 0 960.4 0.9 58
2017-10-13 22:00:00 19.7 3 Este 5 Este 0 960.2 1 54
2017-10-13 21:00:00 21.9 3 Este 14 Sur 0 960 1.1 45
2017-10-13 20:00:00 26.4 4 Sur 12 Sudoeste 0 959.5 0.3 38
2017-10-13 19:00:00 29.2 6 Sudoeste 15 Sudoeste 0 959.2 -0.4 35
2017-10-13 18:00:00 30.7 6 Sudoeste 19 Sur 0 958.9 -1.4 33
2017-10-13 17:00:00 30.8 5 Oeste 18 Sudoeste 0 959.2 -1.6 34
2017-10-13 16:00:00 30.5 6 Sur 17 Oeste 0 959.6 -1.8 34
2017-10-13 15:00:00 29.8 12 Oeste 23 Oeste 0 960.3 -1.3 36
2017-10-13 14:00:00 28.2 6 Sudoeste 22 Sudoeste 0 960.8 -0.3 37
2017-10-13 13:00:00 27.5 9 Sudoeste 21 Sudoeste 0 961.4 0.7 37
2017-10-13 12:00:00 26.2 4 Sudoeste 12 Sur 0 961.6 1.4 41
2017-10-13 11:00:00 23.3 0 Calma 3 Noroeste 0 961.1 1 56
2017-10-13 10:00:00 19.5 3 Este 5 Este 0 960.7 0.6 68
2017-10-13 09:00:00 15.3 4 Sudeste 9 Este 0 960.2 0.3 77
2017-10-13 08:00:00 14.1 4 Sudeste 7 Este 0 960.1 0.2 77
2017-10-13 07:00:00 14 5 Este 8 Este 0 960.1 -0.3 78
2017-10-13 06:00:00 14.1 5 Este 7 Este 0 959.9 -0.4 77
2017-10-13 05:00:00 14.6 4 Este 8 Este 0 959.9 -0.6 76
2017-10-13 04:00:00 15.4 4 Sudeste 6 Este 0 960.4 -0.3 74
2017-10-13 03:00:00 15.4 5 Este 7 Este 0 960.3 -0.3 74
2017-10-13 02:00:00 15.8 4 Sudeste 7 Este 0 960.5 0.3 71
2017-10-13 01:00:00 16.9 3 Sudeste 6 Sudeste 0 960.7 0.7 67
2017-10-13 00:00:00 16.9 2 Sudeste 6 Este 0 960.6 0.7 65
2017-10-12 23:00:00 18.3 3 Este 7 Este 0 960.2 0.4 59
2017-10-12 22:00:00 19.3 5 Este 8 Este 0 960 0.3 56
2017-10-12 21:00:00 20.5 5 Este 7 Este 0 959.9 0.3 51
2017-10-12 20:00:00 25.5 3 Sur 9 Sudoeste 0 959.8 0 42
2017-10-12 19:00:00 28.8 4 Oeste 21 Oeste 0 959.7 -0.2 39
2017-10-12 18:00:00 29 9 Sudoeste 23 Oeste 0 959.6 -0.5 38
2017-10-12 17:00:00 29.4 9 Sudoeste 25 Oeste 0 959.8 -0.7 38
2017-10-12 16:00:00 29.5 8 Sudoeste 28 Oeste 0 959.9 -0.9 39
2017-10-12 15:00:00 29.1 11 Sudoeste 27 Sudoeste 0 960.1 -0.5 39
2017-10-12 14:00:00 29.8 7 Sur 23 Sur 0 960.5 0 39
2017-10-12 13:00:00 27.6 9 Sudoeste 22 Sudoeste 0 960.8 0.7 42
2017-10-12 12:00:00 26.6 7 Sudeste 17 Sur 0 960.6 0.9 44
2017-10-12 11:00:00 24.7 5 Sudeste 12 Sur 0 960.5 1.3 48
2017-10-12 10:00:00 20.1 6 Este 10 Este 0 960.1 1.2 55
2017-10-12 09:00:00 17.8 6 Este 10 Este 0 959.7 1.3 57
2017-10-12 08:00:00 16.2 4 Sudeste 10 Este 0 959.2 0.9 60
2017-10-12 07:00:00 16.4 0 Calma 10 Este 0 958.9 0.7 59
2017-10-12 06:00:00 17.1 3 Sudeste 9 Este 0 958.4 -0.1 60
2017-10-12 05:00:00 17.5 5 Este 10 Este 0 958.3 -0.3 59
2017-10-12 04:00:00 16 4 Sudeste 6 Este 0 958.2 -0.5 58
2017-10-12 03:00:00 16 2 Sudeste 5 Sudeste 0 958.5 -0.4 55
2017-10-12 02:00:00 17.4 3 Sudeste 5 Sudeste 0 958.6 -0.6 52
2017-10-12 01:00:00 18.2 3 Sudeste 5 Este 0 958.7 0 49
2017-10-12 00:00:00 18.7 0 Calma 8 Este 0 958.9 0.8 47
2017-10-11 23:00:00 19.1 2 Este 7 Este 0 959.2 1.7 47
2017-10-11 22:00:00 19.2 3 Sudeste 5 Este 0 958.7 1.4 45
2017-10-11 21:00:00 20.3 3 Este 5 Este 0 958.1 1.2 41
2017-10-11 20:00:00 25.9 3 Sur 11 Sudoeste 0 957.5 0.5 33
2017-10-11 19:00:00 28.8 4 Sudoeste 12 Sur 0 957.3 0.2 31
2017-10-11 18:00:00 30.9 6 Oeste 12 Oeste 0 956.9 -0.4 29
2017-10-11 17:00:00 31.3 7 Oeste 17 Oeste 0 957 -0.9 28
2017-10-11 16:00:00 31 8 Oeste 15 Sur 0 957.1 -1.1 30
2017-10-11 15:00:00 29.4 6 Sur 22 Sudoeste 0 957.3 -1.1 33
2017-10-11 14:00:00 28.4 6 Sudeste 15 Sudeste 0 957.9 0 36
2017-10-11 13:00:00 27.4 6 Sudeste 18 Este 0 958.2 0.5 40
2017-10-11 12:00:00 26.2 3 Sur 10 Sudeste 0 958.4 1.3 45
2017-10-11 11:00:00 23.2 2 Este 8 Este 0 957.9 1.1 52
2017-10-11 10:00:00 19 3 Sudeste 8 Este 0 957.7 1.1 65
2017-10-11 09:00:00 13.2 4 Sudeste 7 Este 0 957.1 0.6 75
2017-10-11 08:00:00 13.2 3 Sudeste 8 Este 0 956.8 0.1 75
2017-10-11 07:00:00 13.5 5 Sudeste 8 Sudeste 0 956.6 -0.2 74
2017-10-11 06:00:00 13.3 5 Este 8 Este 0 956.5 -0.5 73
2017-10-11 05:00:00 13.3 5 Este 8 Este 0 956.7 -0.2 72
2017-10-11 04:00:00 13.6 5 Este 9 Este 0 956.8 -0.2 72
2017-10-11 03:00:00 13.8 5 Sudeste 8 Este 0 957 -0.1 71
2017-10-11 02:00:00 14.5 4 Sudeste 8 Este 0 956.9 0.1 68
2017-10-11 01:00:00 14.3 3 Sudeste 7 Este 0 957 0.6 67
2017-10-11 00:00:00 14.7 4 Sudeste 12 Este 0 957.1 1.4 62
2017-10-10 23:00:00 15.4 3 Sudeste 4 Este 0 956.8 1.6 57
2017-10-10 22:00:00 16.7 2 Este 8 Este 0 956.4 1.4 51
2017-10-10 21:00:00 19.4 4 Este 7 Sur 0 955.7 0.9 45
2017-10-10 20:00:00 22.8 5 Sur 10 Sur 0 955.2 0.5 36
2017-10-10 19:00:00 27.5 4 Sur 14 Sur 0 955 0 32
2017-10-10 18:00:00 28.6 4 Sur 16 Sudoeste 0 954.8 -0.7 32
2017-10-10 17:00:00 29.2 5 Sur 26 Oeste 0 954.7 -1.3 32
2017-10-10 16:00:00 29.2 5 Sur 19 Sur 0 955 -1.4 34
2017-10-10 15:00:00 28.4 6 Sur 17 Sur 0 955.5 -0.8 37
2017-10-10 14:00:00 28.2 6 Sudeste 16 Sur 0 956 -0.3 39
2017-10-10 13:00:00 27.4 5 Sur 15 Sur 0 956.4 0.4 39
2017-10-10 12:00:00 25.7 4 Oeste 10 Oeste 0 956.3 0.8 39
2017-10-10 11:00:00 22.2 2 Oeste 5 Oeste 0 956.3 1.4 45
2017-10-10 10:00:00 18.1 3 Este 5 Este 0 956 1.3 57
2017-10-10 09:00:00 12.4 3 Sudeste 8 Este 0 955.5 0.9 64
2017-10-10 08:00:00 12.2 5 Este 10 Este 0 954.9 0.2 64
2017-10-10 07:00:00 12.9 5 Este 8 Este 0 954.7 0 63
2017-10-10 06:00:00 12.8 4 Este 8 Este 0 954.6 -0.4 64
2017-10-10 05:00:00 13.3 5 Este 8 Este 0 954.7 -0.3 64
2017-10-10 04:00:00 13.2 4 Este 7 Este 0 954.7 -0.5 67
2017-10-10 03:00:00 13.3 4 Este 8 Este 0 955 -0.4 70
2017-10-10 02:00:00 14.5 5 Este 8 Este 0 955 -0.5 69
2017-10-10 01:00:00 15 3 Este 9 Este 0 955.2 0.2 67
2017-10-10 00:00:00 16.1 5 Este 6 Sudeste 0 955.4 0.5 65
2017-10-09 23:00:00 17.1 0 Calma 4 Este 0 955.5 0.9 62
2017-10-09 22:00:00 18.6 2 Sudeste 10 Sur 0 955 0.8 54
2017-10-09 21:00:00 20.5 4 Sudeste 9 Sur 0 954.9 0.9 45
2017-10-09 20:00:00 25.4 4 Sur 17 Sudoeste 0 954.6 0.4 36
2017-10-09 19:00:00 27.7 8 Sudoeste 19 Oeste 0 954.2 -0.2 33
2017-10-09 18:00:00 29.6 6 Sudoeste 20 Sur 0 954 -1 30
2017-10-09 17:00:00 30.4 4 Oeste 18 Oeste 0 954.2 -1.6 30
2017-10-09 16:00:00 30.2 6 Sur 19 Oeste 0 954.4 -1.8 30
2017-10-09 15:00:00 30.1 6 Este 19 Este 0 955 -1.3 28
2017-10-09 14:00:00 29.7 2 Sur 18 Oeste 0 955.8 -0.6 29
2017-10-09 13:00:00 28.6 8 Sudoeste 17 Oeste 0 956.2 0 32
2017-10-09 12:00:00 26.8 3 Oeste 9 Noroeste 0 956.3 0.5 38
2017-10-09 11:00:00 22.1 0 Calma 3 Sudeste 0 956.4 1.2 48
2017-10-09 10:00:00 18.4 3 Sudeste 4 Sudeste 0 956.2 1.3 65
2017-10-09 09:00:00 12.7 3 Sudeste 7 Este 0 955.8 0.8 75
2017-10-09 08:00:00 12.8 2 Sudeste 8 Sudeste 0 955.2 0.1 75
2017-10-09 07:00:00 14 6 Este 10 Este 0 954.9 -0.5 72
2017-10-09 06:00:00 13.9 6 Este 9 Este 0 955 -0.5 73
2017-10-09 05:00:00 16 3 Sudeste 13 Norte 0 955.1 -0.5 66
2017-10-09 04:00:00 14.3 3 Sudeste 6 Este 0 955.4 -0.5 74
2017-10-09 03:00:00 14.9 3 Sudeste 8 Este 0 955.5 -0.5 73
2017-10-09 02:00:00 15.1 5 Este 7 Este 0 955.6 -0.2 75
2017-10-09 01:00:00 15.9 4 Sudeste 7 Este 0 955.9 0.2 77
2017-10-09 00:00:00 15.9 3 Sudeste 7 Este 0 956 0.7 76
2017-10-08 23:00:00 17 5 Este 8 Este 0 955.8 1 71
2017-10-08 22:00:00 18.2 3 Sudeste 5 Este 0 955.7 1.2 65
2017-10-08 21:00:00 20.3 2 Sudeste 6 Sur 0 955.3 1 56
2017-10-08 20:00:00 24.3 3 Sur 11 Oeste 0 954.8 0.4 45
2017-10-08 19:00:00 28.2 7 Sudoeste 17 Noroeste 0 954.5 -0.3 34
2017-10-08 18:00:00 30.6 9 Noroeste 22 Norte 0 954.3 -1 28
2017-10-08 17:00:00 31 5 Noroeste 22 Noroeste 0 954.4 -1.7 28
2017-10-08 16:00:00 30.4 4 Sudoeste 15 Oeste 0 954.8 -1.7 31
2017-10-08 15:00:00 29.8 4 Sur 12 Norte 0 955.3 -1.4 36
2017-10-08 14:00:00 28.6 2 Sur 13 Sur 0 956.1 -0.5 41
2017-10-08 13:00:00 27.2 3 Sur 10 Este 0 956.5 0.1 46
2017-10-08 12:00:00 24.2 2 Sur 8 Este 0 956.7 0.8 55
2017-10-08 11:00:00 20.4 4 Este 11 Este 0 956.6 1.1 69
2017-10-08 10:00:00 18.4 8 Este 13 Este 0 956.4 0.9 81
2017-10-08 09:00:00 14 4 Sudeste 7 Este 0 955.9 0.5 98
2017-10-08 08:00:00 13.7 2 Sudeste 5 Este 0 955.5 0.1 97
2017-10-08 07:00:00 13.8 0 Calma 6 Este 0 955.5 0.1 94
2017-10-08 06:00:00 14.6 3 Sudeste 5 Este 0 955.4 0 92
2017-10-08 05:00:00 15.6 0 Calma 5 Sudeste 0 955.4 -0.1 86
2017-10-08 04:00:00 17.6 4 Sudeste 10 Sur 0 955.4 0.1 80
2017-10-08 03:00:00 17.7 3 Sudeste 9 Sudeste 0 955.4 0.2 73
2017-10-08 02:00:00 17.5 4 Este 8 Sudeste 0 955.5 0.9 71
2017-10-08 01:00:00 17.3 3 Este 5 Este 0 955.3 0.9 70
2017-10-08 00:00:00 18.7 0 Calma 8 Sur 0 955.2 1 62
2017-10-07 23:00:00 21.6 0 Calma 10 Sur 0 954.6 0.7 55
2017-10-07 22:00:00 23.2 3 Sur 8 Oeste 0 954.4 0.9 51
2017-10-07 21:00:00 24.5 3 Oeste 9 Oeste 0 954.2 1.1 48
2017-10-07 20:00:00 26.5 4 Sudoeste 19 Sudoeste 0 953.9 0.7 44
2017-10-07 19:00:00 28.3 9 Sudoeste 23 Sudoeste 0 953.5 0 41
2017-10-07 18:00:00 29.7 7 Sudoeste 23 Sudoeste 0 953.1 -1.1 37
2017-10-07 17:00:00 30.5 7 Sudoeste 21 Sudoeste 0 953.2 -1.5 35
2017-10-07 16:00:00 30.6 8 Sudoeste 19 Sudoeste 0 953.5 -1.4 36
2017-10-07 15:00:00 30.1 6 Sudoeste 18 Sudeste 0 954.2 -0.5 38
2017-10-07 14:00:00 29.8 4 Sudoeste 24 Sudoeste 0 954.7 0 39
2017-10-07 13:00:00 28.7 7 Sur 15 Sur 0 954.9 0.5 42
2017-10-07 12:00:00 27.1 5 Este 11 Este 0 954.7 0.8 48
2017-10-07 11:00:00 23.9 6 Este 10 Este 0 954.7 0.9 56
2017-10-07 10:00:00 21 3 Sudeste 6 Este 0 954.4 0.8 63
2017-10-07 09:00:00 15.5 3 Sudeste 6 Este 0 953.9 0.3 72
2017-10-07 08:00:00 15.5 4 Sudeste 8 Este 0 953.8 0.3 71
2017-10-07 07:00:00 16.5 5 Este 9 Este 0 953.6 -0.3 71
2017-10-07 06:00:00 16.2 6 Este 9 Este 0 953.6 -0.3 73
2017-10-07 05:00:00 16.1 5 Este 8 Este 0 953.5 -0.8 73
2017-10-07 04:00:00 16.2 3 Sudeste 8 Este 0 953.9 -0.6 71
2017-10-07 03:00:00 17.8 3 Este 8 Este 0 953.9 -0.6 69
2017-10-07 02:00:00 17.2 5 Este 8 Este 0 954.3 -0.1 69
2017-10-07 01:00:00 17.4 3 Sudeste 4 Sudeste 0 954.5 0.1 66
2017-10-07 00:00:00 18.6 3 Este 4 Este 0 954.5 0.4 62
2017-10-06 23:00:00 20.7 0 Calma 9 Oeste 0 954.4 0.6 55
2017-10-06 22:00:00 21.7 0 Calma 9 Sur 0 954.4 0.9 48
2017-10-06 21:00:00 25.4 0 Calma 13 Sudoeste 0 954.1 0.6 40
2017-10-06 20:00:00 28.1 4 Sur 14 Sudoeste 0 953.8 0.2 36
2017-10-06 19:00:00 30.4 6 Sudoeste 21 Oeste 0 953.5 -0.7 34
2017-10-06 18:00:00 32.3 7 Oeste 22 Oeste 0 953.5 -1.3 33
2017-10-06 17:00:00 32.6 6 Oeste 22 Oeste 0 953.6 -1.8 32
2017-10-06 16:00:00 32.2 4 Sur 24 Este 0 954.2 -1.8 34
2017-10-06 15:00:00 31.7 7 Oeste 28 Sudeste 0 954.8 -1.6 34
2017-10-06 14:00:00 31.2 5 Este 15 Sur 0 955.4 -0.8 35
2017-10-06 13:00:00 30.6 3 Oeste 12 Noroeste 0 956 0.2 39
2017-10-06 12:00:00 28.2 3 Oeste 10 Oeste 0 956.4 0.8 45
2017-10-06 11:00:00 24.4 3 Oeste 7 Oeste 0 956.2 0.8 55
2017-10-06 10:00:00 20.4 0 Calma 5 Nordeste 0 955.8 0.5 73
2017-10-06 09:00:00 14.8 3 Sudeste 9 Este 0 955.6 0.2 85
2017-10-06 08:00:00 15.3 6 Este 11 Este 0 955.4 -0.1 83
2017-10-06 07:00:00 14.4 4 Sudeste 6 Este 0 955.3 -0.5 84
2017-10-06 06:00:00 14.2 5 Este 6 Este 0 955.4 -0.5 83
2017-10-06 05:00:00 14.8 3 Sudeste 6 Este 0 955.5 -0.9 81
2017-10-06 04:00:00 15.2 4 Sudeste 6 Este 0 955.8 -0.8 79
2017-10-06 03:00:00 15.2 4 Sudeste 8 Este 0 955.9 -0.7 78
2017-10-06 02:00:00 16.1 5 Este 8 Este 0 956.4 -0.3 75
2017-10-06 01:00:00 16.5 4 Este 6 Sudeste 0 956.6 0.3 73
2017-10-06 00:00:00 17.1 4 Este 6 Este 0 956.6 0.5 70
2017-10-05 23:00:00 17.9 2 Sudeste 5 Este 0 956.7 1.1 64
2017-10-05 22:00:00 19.1 3 Este 6 Este 0 956.3 0.8 56
2017-10-05 21:00:00 21.5 3 Este 8 Sur 0 956.1 0.6 48
2017-10-05 20:00:00 25.8 4 Sur 16 Sur 0 955.6 0 42
2017-10-05 19:00:00 29 6 Sur 17 Sudoeste 0 955.5 -0.8 41
2017-10-05 18:00:00 30.5 6 Sudoeste 19 Oeste 0 955.5 -1.4 39
2017-10-05 17:00:00 30.5 6 Este 18 Este 0 955.6 -2.2 38
2017-10-05 16:00:00 29.8 8 Nordeste 18 Este 0 956.3 -2.1 38
2017-10-05 15:00:00 28.9 10 Este 24 Este 0 956.9 -1.9 45
2017-10-05 14:00:00 28.6 5 Sudeste 15 Nordeste 0 957.8 -1 47
2017-10-05 13:00:00 27.7 4 Este 14 Este 0 958.4 0 50
2017-10-05 12:00:00 25.5 8 Este 14 Este 0 958.8 0.7 57
2017-10-05 11:00:00 22.4 6 Este 9 Este 0 958.8 0.5 67
2017-10-05 10:00:00 20.1 3 Este 7 Este 0 958.4 0.6 80
2017-10-05 09:00:00 15.8 2 Sudeste 5 Sudeste 0 958.1 0.4 89
2017-10-05 08:00:00 17.2 0 Calma 12 Sudoeste 0 958.3 0.5 79
2017-10-05 07:00:00 19.2 4 Este 14 Sudeste 0 957.8 -0.4 73
2017-10-05 06:00:00 19.8 7 Sudeste 19 Sur 0 957.7 -0.8 72
2017-10-05 05:00:00 19.6 7 Este 11 Sudeste 0 957.8 -0.6 72
2017-10-05 04:00:00 17.1 0 Calma 7 Este 0 958.2 -0.4 80
2017-10-05 03:00:00 18.3 3 Este 8 Este 0 958.5 0 75
2017-10-05 02:00:00 20.5 5 Este 10 Este 0 958.4 -0.1 68
2017-10-05 01:00:00 20.7 6 Nordeste 13 Este 0 958.6 0.5 65
2017-10-05 00:00:00 21.5 6 Este 12 Este 0 958.5 1 58
2017-10-04 23:00:00 22.1 3 Este 10 Este 0 958.5 1.3 56
2017-10-04 22:00:00 23.3 4 Este 10 Este 0 958.1 1.3 53
2017-10-04 21:00:00 24.7 5 Este 13 Este 0 957.5 0.6 49
2017-10-04 20:00:00 26.6 3 Sudeste 17 Sur 0 957.2 0.3 46
2017-10-04 19:00:00 28.3 7 Sur 17 Sur 0 956.8 -0.4 44
2017-10-04 18:00:00 30.1 5 Sur 17 Sur 0 956.9 -0.7 42
2017-10-04 17:00:00 29.8 7 Sur 18 Sur 0 956.9 -1.1 42
2017-10-04 16:00:00 29.5 6 Sudoeste 22 Sur 0 957.2 -1.2 44
2017-10-04 15:00:00 28.9 7 Sur 23 Sudoeste 0 957.6 -0.7 45
2017-10-04 14:00:00 28.3 6 Sur 18 Sudeste 0 958 -0.2 47
2017-10-04 13:00:00 26.7 9 Sur 22 Sur 0 958.4 0.7 51
2017-10-04 12:00:00 25.5 8 Sur 18 Sur 0 958.3 0.9 55
2017-10-04 11:00:00 22.9 6 Sudeste 14 Sur 0 958.2 1.4 64
2017-10-04 10:00:00 21.6 4 Este 11 Este 0 957.7 1.5 72
2017-10-04 09:00:00 15.8 0 Calma 9 Este 0 957.4 1.4 90
2017-10-04 08:00:00 14.9 0 Calma 3 Este 0 956.8 0.7 90
2017-10-04 07:00:00 15.1 0 Calma 6 Este 0 956.2 0 88
2017-10-04 06:00:00 15.5 2 Sudeste 5 Este 0 956 -0.4 86
2017-10-04 05:00:00 16 0 Calma 5 Este 0 956.1 -0.4 84
2017-10-04 04:00:00 16.6 4 Este 6 Este 0 956.2 -0.5 81
2017-10-04 03:00:00 16.6 3 Este 5 Este 0 956.4 -0.4 79
2017-10-04 02:00:00 17.7 0 Calma 6 Este 0 956.5 -0.3 75
2017-10-04 01:00:00 18.6 4 Sudeste 6 Este 0 956.7 0.6 72
2017-10-04 00:00:00 19.2 5 Este 7 Este 0 956.8 1.2 69
2017-10-03 23:00:00 19.7 0 Calma 5 Este 0 956.8 1.3 65
2017-10-03 22:00:00 21.2 2 Este 5 Este 0 956.1 0.9 58
2017-10-03 21:00:00 24.4 2 Sudoeste 9 Sudoeste 0 955.6 0.5 48
2017-10-03 20:00:00 27.3 5 Sur 13 Sur 0 955.5 0.3 43
2017-10-03 19:00:00 29.3 7 Sudoeste 19 Sudoeste 0 955.2 -0.6 41
2017-10-03 18:00:00 30.9 6 Oeste 22 Oeste 0 955.1 -1.4 40
2017-10-03 17:00:00 30.9 4 Sudoeste 16 Sur 0 955.2 -2.2 40
2017-10-03 16:00:00 30 6 Sudeste 19 Sur 0 955.8 -2.1 41
2017-10-03 15:00:00 30.1 4 Sur 13 Sur 0 956.5 -1.7 43
2017-10-03 14:00:00 28.8 4 Sur 12 Este 0 957.4 -0.9 46
2017-10-03 13:00:00 27.2 5 Este 14 Sur 0 957.9 0 50
2017-10-03 12:00:00 25.5 4 Sudeste 14 Sur 0 958.2 0.6 58
2017-10-03 11:00:00 22.9 8 Este 14 Este 0 958.3 1.2 65
2017-10-03 10:00:00 20.7 3 Nordeste 12 Sudeste 0 957.9 1.1 76
2017-10-03 09:00:00 17.4 6 Este 9 Este 0 957.6 0.9 90
2017-10-03 08:00:00 14.7 0 Calma 5 Sur 0 957.1 0.4 93
2017-10-03 07:00:00 15.1 3 Sudeste 5 Este 0 956.8 -0.4 94
2017-10-03 06:00:00 15.5 0 Calma 8 Este 0 956.7 -0.7 91
2017-10-03 05:00:00 15.8 3 Sudeste 11 Este 0 956.7 -0.6 90
2017-10-03 04:00:00 16.7 0 Calma 8 Este 0 957.2 -0.4 83
2017-10-03 03:00:00 17.1 3 Sudeste 6 Este 0 957.4 -0.2 80
2017-10-03 02:00:00 18.3 3 Este 8 Este 0 957.3 -0.2 76
2017-10-03 01:00:00 19.2 0 Calma 5 Este 0 957.6 0.3 69
2017-10-03 00:00:00 19.6 2 Sudeste 6 Sur 0 957.6 0.6 64
2017-10-02 23:00:00 20 2 Sudeste 4 Sudeste 0 957.5 0.8 60
2017-10-02 22:00:00 21.1 3 Este 6 Este 0 957.3 1 55
2017-10-02 21:00:00 24.4 2 Este 11 Nordeste 0 957 1.1 46
2017-10-02 20:00:00 28.4 6 Nordeste 22 Este 0 956.7 0.6 39
2017-10-02 19:00:00 30.1 10 Nordeste 23 Este 0 956.3 -0.2 38
2017-10-02 18:00:00 30.9 11 Nordeste 26 Este 0 955.9 -1.2 36
2017-10-02 17:00:00 31.2 8 Este 22 Este 0 956.1 -1.8 37
2017-10-02 16:00:00 31.6 10 Nordeste 22 Nordeste 0 956.5 -1.9 36
2017-10-02 15:00:00 30.5 6 Este 26 Este 0 957.1 -1.6 39
2017-10-02 14:00:00 29.5 10 Este 24 Este 0 957.9 -0.7 42
2017-10-02 13:00:00 28.6 12 Este 22 Este 0 958.4 0.3 45
2017-10-02 12:00:00 26.6 11 Este 27 Este 0 958.7 0.7 50
2017-10-02 11:00:00 25 11 Este 21 Este 0 958.6 0.9 54
2017-10-02 10:00:00 22.8 7 Este 13 Este 0 958.1 0.6 59
2017-10-02 09:00:00 19.2 7 Este 11 Sudeste 0 958 0.6 70
2017-10-02 08:00:00 16.2 5 Este 9 Este 0 957.7 0.6 76
2017-10-02 07:00:00 16 3 Este 6 Este 0 957.5 0.3 77
2017-10-02 06:00:00 16.2 5 Este 7 Este 0 957.4 0 74
2017-10-02 05:00:00 17.2 3 Sudeste 6 Sudeste 0 957.1 -0.3 68
2017-10-02 04:00:00 18.4 3 Sudeste 6 Sudeste 0 957.2 -0.2 64
2017-10-02 03:00:00 19.9 4 Sudeste 11 Este 0 957.4 0.2 59
2017-10-02 02:00:00 21.3 5 Este 10 Este 0 957.4 0.5 56
2017-10-02 01:00:00 21.4 5 Este 10 Sudeste 0 957.4 0.9 55
2017-10-02 00:00:00 20.7 5 Este 9 Este 0 957.2 1.1 56
2017-10-01 23:00:00 20.6 4 Sudeste 8 Este 0 956.9 1.2 53
2017-10-01 22:00:00 22.1 4 Este 7 Este 0 956.5 1.2 48
2017-10-01 21:00:00 24 3 Este 8 Este 0 956.1 0.9 42
2017-10-01 20:00:00 27.8 3 Nordeste 17 Nordeste 0 955.7 0.8 34
2017-10-01 19:00:00 29.9 8 Nordeste 19 Norte 0 955.3 0 31
2017-10-01 18:00:00 30.9 7 Nordeste 22 Nordeste 0 955.2 -0.5 31
2017-10-01 17:00:00 30.8 5 Nordeste 21 Este 0 954.9 -1.2 31
2017-10-01 16:00:00 31.1 0 Calma 16 Norte 0 955.3 -1.2 33
2017-10-01 15:00:00 30.9 4 Nordeste 20 Este 0 955.7 -0.9 35
2017-10-01 14:00:00 29.8 6 Este 12 Sudeste 0 956.1 -0.3 36
2017-10-01 13:00:00 29 0 Calma 13 Nordeste 0 956.5 0.2 39
2017-10-01 12:00:00 26.8 6 Este 13 Nordeste 0 956.6 0.9 44
2017-10-01 11:00:00 23.2 5 Este 12 Este 0 956.4 1 52
2017-10-01 10:00:00 19.3 2 Este 10 Este 0 956.3 1.5 66
2017-10-01 09:00:00 14.9 3 Este 6 Este 0 955.7 0.8 79
2017-10-01 08:00:00 14.4 2 Este 6 Este 0 955.4 0.7 79
2017-10-01 07:00:00 14.4 4 Este 6 Este 0 954.8 0.2 79
2017-10-01 06:00:00 15 3 Este 6 Sudeste 0 954.9 -0.2 77
2017-10-01 05:00:00 15.7 4 Este 6 Este 0 954.7 -0.7 77
2017-10-01 04:00:00 16.1 4 Este 7 Este 0 954.6 -0.6 77
2017-10-01 03:00:00 16.8 5 Este 7 Este 0 955.1 -0.2 76
2017-10-01 02:00:00 17.4 2 Este 8 Sudeste 0 955.4 0.1 73
2017-10-01 01:00:00 18 3 Sudeste 7 Este 0 955.2 0 69
2017-10-01 00:00:00 18.8 2 Sudeste 7 Nordeste 0 955.3 0.6 63
2017-09-30 23:00:00 20.2 3 Este 10 Este 0 955.3 0.8 55
2017-09-30 22:00:00 22.3 4 Nordeste 10 Nordeste 0 955.2 1.5 47
2017-09-30 21:00:00 22.4 3 Nordeste 15 Oeste 0 954.7 1.2 49
2017-09-30 20:00:00 25.7 8 Oeste 17 Sudoeste 0 954.5 0.4 44
2017-09-30 19:00:00 28.5 5 Oeste 24 Oeste 0 953.7 -1 39
2017-09-30 18:00:00 29.9 12 Oeste 24 Oeste 0 953.5 -1.8 37
2017-09-30 17:00:00 30.1 12 Oeste 23 Oeste 0 954.1 -1.8 36
2017-09-30 16:00:00 30 5 Sudoeste 20 Sudoeste 0 954.7 -2 38
2017-09-30 15:00:00 29.9 4 Oeste 20 Oeste 0 955.3 -1.8 39
2017-09-30 14:00:00 29.3 4 Oeste 12 Oeste 0 955.9 -1.3 40
2017-09-30 13:00:00 27.5 5 Sudoeste 11 Sudoeste 0 956.7 -0.2 44
2017-09-30 12:00:00 25.2 5 Sudoeste 9 Sudoeste 0 957.1 0.3 50
2017-09-30 11:00:00 23 3 Sudoeste 8 Oeste 0 957.2 0.7 56
2017-09-30 10:00:00 18.5 0 Calma 5 Este 0 956.9 0.4 74
2017-09-30 09:00:00 14.1 3 Este 6 Este 0 956.8 0.4 86
2017-09-30 08:00:00 13.5 2 Sudeste 7 Este 0 956.5 0.2 85
2017-09-30 07:00:00 14 3 Sudeste 6 Este 0 956.5 0 84
2017-09-30 06:00:00 14.6 4 Este 6 Este 0 956.4 -0.1 82
2017-09-30 05:00:00 15.1 3 Sudeste 7 Sudeste 0 956.3 -0.4 80
2017-09-30 04:00:00 16.2 3 Sudeste 8 Este 0 956.5 -0.4 78
2017-09-30 03:00:00 16.4 4 Sudeste 6 Este 0 956.5 -0.6 78
2017-09-30 02:00:00 17.8 3 Sudoeste 12 Noroeste 0 956.7 -0.3 73
2017-09-30 01:00:00 17 4 Este 8 Este 0 956.9 0.2 73
2017-09-30 00:00:00 18.1 3 Sudeste 8 Este 0 957.1 0.8 71
2017-09-29 23:00:00 18.8 3 Este 6 Noroeste 0 957 1.1 68
2017-09-29 22:00:00 20.7 3 Este 9 Sur 0 956.7 1.1 58
2017-09-29 21:00:00 24.8 5 Sur 10 Sur 0 956.3 0.9 47
2017-09-29 20:00:00 26.2 4 Sudoeste 17 Oeste 0 955.9 0.1 43
2017-09-29 19:00:00 28 5 Sudoeste 15 Sudoeste 0 955.6 -0.4 41
2017-09-29 18:00:00 28.5 7 Sudoeste 18 Oeste 0 955.4 -1.6 39
2017-09-29 17:00:00 30.6 3 Nordeste 15 Noroeste 0 955.8 -2 37
2017-09-29 16:00:00 29.9 5 Este 14 Nordeste 0 956 -2.5 38
2017-09-29 15:00:00 28.6 7 Este 17 Sudoeste 0 957 -1.7 41
2017-09-29 14:00:00 27.5 3 Oeste 14 Sudoeste 0 957.8 -0.8 45
2017-09-29 13:00:00 25.2 2 Sudeste 13 Oeste 0 958.5 0.4 50
2017-09-29 12:00:00 24.3 5 Sudoeste 12 Sudoeste 0 958.7 1 54
2017-09-29 11:00:00 21.7 0 Calma 4 Noroeste 0 958.6 1.3 65
2017-09-29 10:00:00 19.5 0 Calma 6 Sudeste 0 958.1 0.9 73
2017-09-29 09:00:00 15.5 4 Sudeste 6 Este 0 957.7 0.5 86
2017-09-29 08:00:00 14.6 3 Sudeste 6 Este 0 957.3 -0.1 84
2017-09-29 07:00:00 15.1 2 Sudeste 5 Este 0 957.2 -0.5 80
2017-09-29 06:00:00 16.5 0 Calma 5 Este 0 957.2 -0.8 73
2017-09-29 05:00:00 17.8 2 Este 6 Nordeste 0 957.4 -0.8 67
2017-09-29 04:00:00 19.4 0 Calma 11 Sur 0 957.7 -0.6 59
2017-09-29 03:00:00 20.1 0 Calma 11 Sur 0 958 -0.4 54
2017-09-29 02:00:00 20.7 2 Este 9 Sur 0 958.2 0 50
2017-09-29 01:00:00 21.9 5 Sudeste 14 Sudeste 0 958.3 0.5 48
2017-09-29 00:00:00 22.9 5 Sur 13 Sur 0 958.4 1 48
2017-09-28 23:00:00 23 5 Sur 10 Sur 0 958.2 0.9 49
2017-09-28 22:00:00 22.9 3 Sudoeste 10 Sur 0 957.8 0.7 49
2017-09-28 21:00:00 21.6 0 Calma 7 Oeste 0 957.4 0.5 52
2017-09-28 20:00:00 24.7 6 Oeste 11 Sudoeste 0 957.3 0.1 44
2017-09-28 19:00:00 26.3 6 Sur 17 Sur 0 957.1 -0.3 43
2017-09-28 18:00:00 27.6 0 Calma 17 Sudoeste 0 956.9 -1 43
2017-09-28 17:00:00 27.2 9 Sur 24 Sur 0 957.2 -1.1 42
2017-09-28 16:00:00 27.9 5 Sudeste 21 Sur 0 957.4 -1.4 45
2017-09-28 15:00:00 27 9 Sur 18 Sur 0 957.9 -1.2 49
2017-09-28 14:00:00 26.7 6 Sur 18 Sur 0 958.3 -0.4 50
2017-09-28 13:00:00 25.4 3 Este 14 Sudoeste 0 958.8 0 55
2017-09-28 12:00:00 23.3 6 Este 12 Este 0 959.1 0.9 63
2017-09-28 11:00:00 21.2 4 Este 7 Este 0 958.7 0.8 73
2017-09-28 10:00:00 18.3 2 Noroeste 6 Este 0 958.8 1.1 87
2017-09-28 09:00:00 16.9 0 Calma 6 Este 0 958.2 1.1 94
2017-09-28 08:00:00 15.4 2 Sudeste 5 Este 0 957.9 0.7 97
2017-09-28 07:00:00 14.8 2 Este 6 Este 0 957.7 0.3 95
2017-09-28 06:00:00 16.2 0 Calma 9 Este 0 957.1 -0.4 91
2017-09-28 05:00:00 16 3 Este 7 Este 0 957.2 -0.4 88
2017-09-28 04:00:00 18.2 4 Este 6 Este 0 957.4 -0.3 80
2017-09-28 03:00:00 18.7 2 Este 6 Este 0 957.5 -0.3 75
2017-09-28 02:00:00 18.5 3 Este 5 Este 0 957.6 0 77
2017-09-28 01:00:00 18.5 2 Este 6 Este 0 957.7 0.2 77
2017-09-28 00:00:00 18.8 4 Este 6 Este 0 957.8 0.9 78
2017-09-27 23:00:00 18.8 3 Este 5 Este 0 957.6 1.1 78
2017-09-27 22:00:00 18.7 0 Calma 4 Sudoeste 0 957.5 1.3 77
2017-09-27 21:00:00 19.4 0 Calma 5 Noroeste 0 956.9 0.8 72
2017-09-27 20:00:00 20.3 0 Calma 6 Noroeste 0 956.5 0.6 68
2017-09-27 19:00:00 20.8 4 Noroeste 9 Noroeste 0 956.2 0 66
2017-09-27 18:00:00 21 5 Oeste 13 Oeste 0 956.1 0 63
2017-09-27 17:00:00 21.9 5 Oeste 13 Sudoeste 0 955.9 -1 58
2017-09-27 16:00:00 22 6 Oeste 16 Sur 0 956.2 -0.8 57
2017-09-27 15:00:00 22.9 5 Oeste 12 Noroeste 0 956.1 -0.9 55
2017-09-27 14:00:00 21.4 6 Sur 13 Sur 0 956.9 0 59
2017-09-27 13:00:00 21 4 Sur 14 Sur 0 957 0.4 65
2017-09-27 12:00:00 20.5 3 Sudeste 12 Sur 0 957 0.8 69
2017-09-27 11:00:00 19.6 0 Calma 4 Sudoeste 0 956.9 1.2 67
2017-09-27 10:00:00 18.4 0 Calma 4 Nordeste 0 956.6 1.1 67
2017-09-27 09:00:00 14.8 4 Este 6 Este 0 956.2 0.8 62
2017-09-27 08:00:00 13 3 Este 5 Este 0 955.7 0.5 61
2017-09-27 07:00:00 12.9 3 Este 6 Este 0 955.5 0.2 62
2017-09-27 06:00:00 13.3 3 Este 5 Este 0 955.4 0.2 64
2017-09-27 05:00:00 14 0 Calma 6 Este 0 955.2 0.1 71
2017-09-27 04:00:00 13.5 3 Este 9 Sudeste 0 955.3 -0.2 73
2017-09-27 03:00:00 13.4 4 Sudeste 7 Este 0 955.2 -0.4 72
2017-09-27 02:00:00 13.7 4 Sudeste 6 Este 0 955.1 -0.3 70
2017-09-27 01:00:00 14.3 4 Sudeste 6 Este 0 955.5 0.2 67
2017-09-27 00:00:00 15.8 5 Este 6 Sudeste 0 955.6 0.9 63
2017-09-26 23:00:00 16.3 0 Calma 4 Noroeste 0 955.4 1.5 54
2017-09-26 22:00:00 20.6 0 Calma 13 Sudoeste 0 955.3 1.7 42
2017-09-26 21:00:00 22.9 4 Sudoeste 18 Sudoeste 0 954.7 1.2 35
2017-09-26 20:00:00 25.6 6 Sudoeste 16 Sudoeste 0 953.9 0.5 30
2017-09-26 19:00:00 27.7 8 Sudoeste 21 Sudoeste 0 953.6 -0.1 29
2017-09-26 18:00:00 28.6 9 Sudoeste 23 Sudoeste 0 953.5 -0.9 28
2017-09-26 17:00:00 29.4 9 Oeste 23 Oeste 0 953.4 -1.6 28
2017-09-26 16:00:00 29 5 Sudoeste 19 Sudoeste 0 953.7 -1.9 28
2017-09-26 15:00:00 28.9 7 Oeste 18 Oeste 0 954.4 -1.1 29
2017-09-26 14:00:00 28.4 7 Oeste 17 Noroeste 0 955 -0.5 28
2017-09-26 13:00:00 27.1 4 Este 11 Sudeste 0 955.6 0.2 31
2017-09-26 12:00:00 25.3 5 Este 13 Este 0 955.5 0.4 37
2017-09-26 11:00:00 22.4 5 Este 10 Este 0 955.5 0.3 45
2017-09-26 10:00:00 17.9 0 Calma 5 Este 0 955.4 0.3 64
2017-09-26 09:00:00 11.4 2 Este 5 Este 0 955.1 -0.2 81
2017-09-26 08:00:00 10.5 4 Este 9 Este 0 955.2 -0.3 79
2017-09-26 07:00:00 10.8 6 Este 8 Este 0 955.1 -0.6 77
2017-09-26 06:00:00 11.1 4 Este 8 Sudeste 0 955.3 -0.6 75
2017-09-26 05:00:00 11.8 4 Este 7 Este 0 955.5 -0.6 70
2017-09-26 04:00:00 12.8 5 Este 8 Este 0 955.7 -0.5 64
2017-09-26 03:00:00 13.9 4 Este 6 Este 0 955.9 -0.4 58
2017-09-26 02:00:00 17 0 Calma 11 Noroeste 0 956.1 0.1 46
2017-09-26 01:00:00 19.4 5 Noroeste 16 Noroeste 0 956.2 0.4 41
2017-09-26 00:00:00 20.7 4 Este 16 Noroeste 0 956.3 0.8 37
2017-09-25 23:00:00 21.4 5 Noroeste 15 Noroeste 0 956 0.7 35
2017-09-25 22:00:00 22.7 8 Noroeste 21 Norte 0 955.8 0.8 34
2017-09-25 21:00:00 23.7 8 Noroeste 16 Norte 0 955.5 0.5 33
2017-09-25 20:00:00 27.2 6 Noroeste 19 Noroeste 0 955.3 -0.1 28
2017-09-25 19:00:00 29.6 10 Noroeste 23 Oeste 0 955 -0.9 28
2017-09-25 18:00:00 30.4 12 Noroeste 24 Oeste 0 955 -1.1 27
2017-09-25 17:00:00 30.9 9 Noroeste 24 Sudoeste 0 955.4 -1.5 30
2017-09-25 16:00:00 30 11 Noroeste 30 Oeste 0 955.9 -1.5 36
2017-09-25 15:00:00 29.6 9 Noroeste 26 Oeste 0 956.1 -1.5 41
2017-09-25 14:00:00 28.3 12 Noroeste 21 Oeste 0 956.9 -0.7 42
2017-09-25 13:00:00 27.7 5 Noroeste 15 Noroeste 0 957.4 -0.1 44
2017-09-25 12:00:00 25.3 7 Oeste 15 Oeste 0 957.6 0.6 49
2017-09-25 11:00:00 22.6 2 Oeste 12 Noroeste 0 957.6 0.8 60
2017-09-25 10:00:00 19.5 0 Calma 6 Este 0 957.5 0.8 58
2017-09-25 09:00:00 14.8 5 Este 8 Este 0 957 0.5 63
2017-09-25 08:00:00 13.4 4 Este 8 Este 0 956.8 0.3 62
2017-09-25 07:00:00 13.4 4 Sudeste 8 Este 0 956.7 -0.2 59
2017-09-25 06:00:00 13.9 4 Sudeste 7 Este 0 956.5 -0.4 54
2017-09-25 05:00:00 14.5 4 Este 6 Este 0 956.5 -0.6 50
2017-09-25 04:00:00 15.3 2 Sudeste 10 Norte 0 956.9 -0.4 46
2017-09-25 03:00:00 18.5 3 Noroeste 14 Noroeste 0 956.9 -0.3 35
2017-09-25 02:00:00 20.7 6 Noroeste 18 Norte 0 957.1 -0.1 34
2017-09-25 01:00:00 21.3 6 Noroeste 17 Noroeste 0 957.3 0.3 42
2017-09-25 00:00:00 18 4 Sudeste 6 Este 0 957.2 0.8 64
2017-09-24 23:00:00 19.7 5 Este 7 Este 0 957.2 1.1 58
2017-09-24 22:00:00 21.8 0 Calma 10 Sur 0 957 1.1 48
2017-09-24 21:00:00 24.9 4 Sudoeste 12 Sudoeste 0 956.4 0.4 41
2017-09-24 20:00:00 27 5 Sudoeste 14 Sudoeste 0 956.1 -0.1 39
2017-09-24 19:00:00 28.5 6 Sudoeste 15 Oeste 0 955.9 -0.6 38
2017-09-24 18:00:00 29.2 2 Sur 21 Oeste 0 956 -0.9 38
2017-09-24 17:00:00 29.1 8 Sudoeste 19 Oeste 0 956.2 -1.1 37
2017-09-24 16:00:00 28.8 9 Sudoeste 19 Oeste 0 956.5 -1.2 38
2017-09-24 15:00:00 28.5 5 Sudeste 15 Sudoeste 0 956.9 -1 40
2017-09-24 14:00:00 27.8 4 Sur 17 Sur 0 957.3 -0.5 43
2017-09-24 13:00:00 26.6 6 Sur 15 Sur 0 957.7 0.3 47
2017-09-24 12:00:00 24.8 5 Sur 14 Sur 0 957.9 1.1 53
2017-09-24 11:00:00 22.6 0 Calma 8 Nordeste 0 957.8 1.3 62
2017-09-24 10:00:00 18.8 0 Calma 4 Este 0 957.4 1.2 86
2017-09-24 09:00:00 13.8 0 Calma 5 Este 0 956.8 0.8 98
2017-09-24 08:00:00 13.2 3 Sudeste 5 Sudeste 0 956.5 0.2 95
2017-09-24 07:00:00 14 3 Sudeste 6 Sudeste 0 956.2 0.1 93
2017-09-24 06:00:00 14.4 0 Calma 7 Este 0 956 -0.3 89
2017-09-24 05:00:00 14.5 4 Este 12 Noroeste 0 956.3 0.2 84
2017-09-24 04:00:00 14.8 0 Calma 10 Oeste 0 956.1 0 80
2017-09-24 03:00:00 16 3 Sudeste 8 Este 0 956.3 0.4 77
2017-09-24 02:00:00 16.7 5 Este 8 Este 0 956.1 0.4 74
2017-09-24 01:00:00 16.7 3 Sudeste 7 Este 0 956.1 0.7 73
2017-09-24 00:00:00 16.6 2 Este 6 Este 0 955.9 0.9 71
2017-09-23 23:00:00 17.9 2 Este 5 Sudeste 0 955.7 1.1 65
2017-09-23 22:00:00 19.9 0 Calma 7 Este 0 955.4 1.1 56
2017-09-23 21:00:00 21.9 4 Este 7 Sur 0 955 1 47
2017-09-23 20:00:00 26.2 4 Sur 13 Sur 0 954.6 0.5 39
2017-09-23 19:00:00 28.1 4 Sur 13 Sur 0 954.3 -0.4 36
2017-09-23 18:00:00 28.7 5 Sudeste 17 Este 0 954 -1.1 35
2017-09-23 17:00:00 29 3 Este 18 Nordeste 0 954.1 -1.5 37
2017-09-23 16:00:00 28.6 0 Calma 16 Este 0 954.7 -1.3 38
2017-09-23 15:00:00 28.2 4 Norte 21 Este 0 955.1 -0.8 39
2017-09-23 14:00:00 26 4 Este 21 Este 0 955.6 -0.1 49
2017-09-23 13:00:00 25.2 2 Sur 17 Este 0 956 0.5 54
2017-09-23 12:00:00 23.1 9 Sudeste 22 Sur 0 955.9 1.1 62
2017-09-23 11:00:00 21.2 9 Sur 22 Sur 0 955.7 1.1 72
2017-09-23 10:00:00 19.6 6 Este 13 Este 0 955.5 1.5 81
2017-09-23 09:00:00 14.1 5 Este 8 Este 0 954.8 0.8 97
2017-09-23 08:00:00 13.5 4 Este 6 Este 0 954.6 0.6 96
2017-09-23 07:00:00 14.4 3 Este 6 Este 0 954 -0.2 94
2017-09-23 06:00:00 15.8 3 Este 10 Sur 0 954 -0.3 87
2017-09-23 05:00:00 16.5 0 Calma 9 Este 0 954 0 78
2017-09-23 04:00:00 16.2 0 Calma 11 Sur 0 954.2 0.5 70
2017-09-23 03:00:00 16.9 3 Sudeste 8 Sur 0 954.3 0.4 66
2017-09-23 02:00:00 16 3 Este 8 Nordeste 0 954 0.2 63
2017-09-23 01:00:00 16.3 3 Este 7 Este 0 953.7 0.3 60
2017-09-23 00:00:00 16.8 4 Este 6 Este 0 953.9 1 58